sensor_id;sensor_type;location;lat;lon;timestamp;P1;durP1;ratioP1;P2;durP2;ratioP2
13406;SDS011;6774;48.208;10.766;2022-11-23T00:01:13;0.70;;;0.50;;
13406;SDS011;6774;48.208;10.766;2022-11-23T00:03:43;2.00;;;1.40;;
13406;SDS011;6774;48.208;10.766;2022-11-23T00:06:11;4.73;;;2.57;;
13406;SDS011;6774;48.208;10.766;2022-11-23T00:08:40;2.60;;;0.53;;
13406;SDS011;6774;48.208;10.766;2022-11-23T00:11:08;1.17;;;1.03;;
13406;SDS011;6774;48.208;10.766;2022-11-23T00:13:37;0.60;;;0.60;;
13406;SDS011;6774;48.208;10.766;2022-11-23T00:16:06;1.00;;;0.70;;
13406;SDS011;6774;48.208;10.766;2022-11-23T00:18:35;1.37;;;0.90;;
13406;SDS011;6774;48.208;10.766;2022-11-23T00:21:07;1.53;;;0.30;;
13406;SDS011;6774;48.208;10.766;2022-11-23T00:23:36;0.73;;;0.40;;
13406;SDS011;6774;48.208;10.766;2022-11-23T00:26:04;0.70;;;0.40;;
13406;SDS011;6774;48.208;10.766;2022-11-23T00:28:33;1.07;;;0.97;;
13406;SDS011;6774;48.208;10.766;2022-11-23T00:31:07;0.60;;;0.53;;
13406;SDS011;6774;48.208;10.766;2022-11-23T00:33:35;1.13;;;1.00;;
13406;SDS011;6774;48.208;10.766;2022-11-23T00:36:05;1.73;;;0.60;;
13406;SDS011;6774;48.208;10.766;2022-11-23T00:38:36;4.37;;;2.83;;
13406;SDS011;6774;48.208;10.766;2022-11-23T00:41:06;2.57;;;0.60;;
13406;SDS011;6774;48.208;10.766;2022-11-23T00:43:36;0.80;;;0.67;;
13406;SDS011;6774;48.208;10.766;2022-11-23T00:46:06;2.63;;;0.67;;
13406;SDS011;6774;48.208;10.766;2022-11-23T00:48:37;3.17;;;1.50;;
13406;SDS011;6774;48.208;10.766;2022-11-23T00:51:06;0.50;;;0.30;;
13406;SDS011;6774;48.208;10.766;2022-11-23T00:53:36;1.27;;;0.67;;
13406;SDS011;6774;48.208;10.766;2022-11-23T00:56:05;0.93;;;0.67;;
13406;SDS011;6774;48.208;10.766;2022-11-23T00:58:33;5.60;;;1.13;;
13406;SDS011;6774;48.208;10.766;2022-11-23T01:01:05;1.07;;;0.50;;
13406;SDS011;6774;48.208;10.766;2022-11-23T01:03:34;0.60;;;0.40;;
13406;SDS011;6774;48.208;10.766;2022-11-23T01:06:04;0.90;;;0.60;;
13406;SDS011;6774;48.208;10.766;2022-11-23T01:08:34;0.67;;;0.40;;
13406;SDS011;6774;48.208;10.766;2022-11-23T01:11:04;0.47;;;0.30;;
13406;SDS011;6774;48.208;10.766;2022-11-23T01:13:33;0.47;;;0.37;;
13406;SDS011;6774;48.208;10.766;2022-11-23T01:16:03;1.03;;;0.60;;
13406;SDS011;6774;48.208;10.766;2022-11-23T01:18:32;1.87;;;0.73;;
13406;SDS011;6774;48.208;10.766;2022-11-23T01:21:00;0.70;;;0.70;;
13406;SDS011;6774;48.208;10.766;2022-11-23T01:23:29;2.03;;;0.70;;
13406;SDS011;6774;48.208;10.766;2022-11-23T01:26:02;0.93;;;0.43;;
13406;SDS011;6774;48.208;10.766;2022-11-23T01:28:32;1.20;;;0.50;;
13406;SDS011;6774;48.208;10.766;2022-11-23T01:31:04;1.43;;;0.50;;
13406;SDS011;6774;48.208;10.766;2022-11-23T01:33:34;1.47;;;0.70;;
13406;SDS011;6774;48.208;10.766;2022-11-23T01:36:07;0.73;;;0.73;;
13406;SDS011;6774;48.208;10.766;2022-11-23T01:38:36;0.87;;;0.33;;
13406;SDS011;6774;48.208;10.766;2022-11-23T01:41:06;0.60;;;0.40;;
13406;SDS011;6774;48.208;10.766;2022-11-23T01:43:35;1.53;;;0.63;;
13406;SDS011;6774;48.208;10.766;2022-11-23T01:46:04;2.97;;;1.03;;
13406;SDS011;6774;48.208;10.766;2022-11-23T01:48:33;2.07;;;0.60;;
13406;SDS011;6774;48.208;10.766;2022-11-23T01:51:12;0.50;;;0.43;;
13406;SDS011;6774;48.208;10.766;2022-11-23T01:53:42;1.23;;;0.70;;
13406;SDS011;6774;48.208;10.766;2022-11-23T01:56:14;2.00;;;0.70;;
13406;SDS011;6774;48.208;10.766;2022-11-23T01:58:46;1.83;;;0.87;;
13406;SDS011;6774;48.208;10.766;2022-11-23T02:01:16;3.70;;;0.33;;
13406;SDS011;6774;48.208;10.766;2022-11-23T02:03:46;0.80;;;0.80;;
13406;SDS011;6774;48.208;10.766;2022-11-23T02:06:16;0.80;;;0.80;;
13406;SDS011;6774;48.208;10.766;2022-11-23T02:08:46;2.80;;;1.23;;
13406;SDS011;6774;48.208;10.766;2022-11-23T02:11:16;0.57;;;0.50;;
13406;SDS011;6774;48.208;10.766;2022-11-23T02:13:46;0.47;;;0.30;;
13406;SDS011;6774;48.208;10.766;2022-11-23T02:16:15;0.97;;;0.40;;
13406;SDS011;6774;48.208;10.766;2022-11-23T02:18:46;0.37;;;0.37;;
13406;SDS011;6774;48.208;10.766;2022-11-23T02:21:18;2.10;;;0.60;;
13406;SDS011;6774;48.208;10.766;2022-11-23T02:23:48;0.40;;;0.20;;
13406;SDS011;6774;48.208;10.766;2022-11-23T02:26:22;2.70;;;1.57;;
13406;SDS011;6774;48.208;10.766;2022-11-23T02:28:53;1.10;;;1.10;;
13406;SDS011;6774;48.208;10.766;2022-11-23T02:31:29;2.87;;;0.63;;
13406;SDS011;6774;48.208;10.766;2022-11-23T02:33:57;0.77;;;0.40;;
13406;SDS011;6774;48.208;10.766;2022-11-23T02:36:30;4.73;;;0.60;;
13406;SDS011;6774;48.208;10.766;2022-11-23T02:39:07;1.43;;;0.87;;
13406;SDS011;6774;48.208;10.766;2022-11-23T02:41:40;1.50;;;0.60;;
13406;SDS011;6774;48.208;10.766;2022-11-23T02:44:13;0.47;;;0.47;;
13406;SDS011;6774;48.208;10.766;2022-11-23T02:46:58;0.70;;;0.67;;
13406;SDS011;6774;48.208;10.766;2022-11-23T02:49:26;0.70;;;0.50;;
13406;SDS011;6774;48.208;10.766;2022-11-23T02:51:55;0.80;;;0.40;;
13406;SDS011;6774;48.208;10.766;2022-11-23T02:54:24;0.87;;;0.60;;
13406;SDS011;6774;48.208;10.766;2022-11-23T02:56:54;3.73;;;0.73;;
13406;SDS011;6774;48.208;10.766;2022-11-23T02:59:22;2.03;;;1.07;;
13406;SDS011;6774;48.208;10.766;2022-11-23T03:01:51;1.03;;;0.57;;
13406;SDS011;6774;48.208;10.766;2022-11-23T03:04:20;0.33;;;0.33;;
13406;SDS011;6774;48.208;10.766;2022-11-23T03:06:53;3.10;;;0.73;;
13406;SDS011;6774;48.208;10.766;2022-11-23T03:09:22;0.77;;;0.77;;
13406;SDS011;6774;48.208;10.766;2022-11-23T03:11:52;1.30;;;0.37;;
13406;SDS011;6774;48.208;10.766;2022-11-23T03:14:24;0.30;;;0.30;;
13406;SDS011;6774;48.208;10.766;2022-11-23T03:16:56;0.60;;;0.50;;
13406;SDS011;6774;48.208;10.766;2022-11-23T03:19:26;0.70;;;0.70;;
13406;SDS011;6774;48.208;10.766;2022-11-23T03:21:54;0.77;;;0.77;;
13406;SDS011;6774;48.208;10.766;2022-11-23T03:24:22;1.30;;;0.40;;
13406;SDS011;6774;48.208;10.766;2022-11-23T03:26:52;1.13;;;0.40;;
13406;SDS011;6774;48.208;10.766;2022-11-23T03:29:21;3.97;;;0.53;;
13406;SDS011;6774;48.208;10.766;2022-11-23T03:31:55;1.10;;;0.87;;
13406;SDS011;6774;48.208;10.766;2022-11-23T03:34:23;4.90;;;1.80;;
13406;SDS011;6774;48.208;10.766;2022-11-23T03:36:51;0.70;;;0.70;;
13406;SDS011;6774;48.208;10.766;2022-11-23T03:39:19;0.90;;;0.50;;
13406;SDS011;6774;48.208;10.766;2022-11-23T03:42:13;2.00;;;0.57;;
13406;SDS011;6774;48.208;10.766;2022-11-23T03:44:41;0.87;;;0.50;;
13406;SDS011;6774;48.208;10.766;2022-11-23T03:47:11;0.73;;;0.70;;
13406;SDS011;6774;48.208;10.766;2022-11-23T03:49:40;2.40;;;0.83;;
13406;SDS011;6774;48.208;10.766;2022-11-23T03:52:08;0.50;;;0.23;;
13406;SDS011;6774;48.208;10.766;2022-11-23T03:54:36;0.70;;;0.47;;
13406;SDS011;6774;48.208;10.766;2022-11-23T03:57:04;1.73;;;0.40;;
13406;SDS011;6774;48.208;10.766;2022-11-23T03:59:32;2.60;;;1.70;;
13406;SDS011;6774;48.208;10.766;2022-11-23T04:02:00;0.50;;;0.50;;
13406;SDS011;6774;48.208;10.766;2022-11-23T04:04:33;1.60;;;1.43;;
13406;SDS011;6774;48.208;10.766;2022-11-23T04:07:25;5.50;;;0.90;;
13406;SDS011;6774;48.208;10.766;2022-11-23T04:09:54;2.13;;;0.50;;
13406;SDS011;6774;48.208;10.766;2022-11-23T04:12:31;2.63;;;0.50;;
13406;SDS011;6774;48.208;10.766;2022-11-23T04:14:59;0.70;;;0.70;;
13406;SDS011;6774;48.208;10.766;2022-11-23T04:17:26;1.27;;;1.07;;
13406;SDS011;6774;48.208;10.766;2022-11-23T04:19:56;0.67;;;0.60;;
13406;SDS011;6774;48.208;10.766;2022-11-23T04:22:23;4.63;;;0.60;;
13406;SDS011;6774;48.208;10.766;2022-11-23T04:24:52;0.53;;;0.53;;
13406;SDS011;6774;48.208;10.766;2022-11-23T04:27:20;0.70;;;0.70;;
13406;SDS011;6774;48.208;10.766;2022-11-23T04:29:48;0.70;;;0.70;;
13406;SDS011;6774;48.208;10.766;2022-11-23T04:32:17;0.43;;;0.30;;
13406;SDS011;6774;48.208;10.766;2022-11-23T04:34:46;3.00;;;0.57;;
13406;SDS011;6774;48.208;10.766;2022-11-23T04:37:16;0.47;;;0.40;;
13406;SDS011;6774;48.208;10.766;2022-11-23T04:39:44;3.50;;;1.27;;
13406;SDS011;6774;48.208;10.766;2022-11-23T04:42:14;0.53;;;0.30;;
13406;SDS011;6774;48.208;10.766;2022-11-23T04:44:48;0.50;;;0.37;;
13406;SDS011;6774;48.208;10.766;2022-11-23T04:47:16;0.50;;;0.40;;
13406;SDS011;6774;48.208;10.766;2022-11-23T04:49:46;0.70;;;0.30;;
13406;SDS011;6774;48.208;10.766;2022-11-23T04:52:15;1.80;;;1.07;;
13406;SDS011;6774;48.208;10.766;2022-11-23T04:54:45;0.43;;;0.43;;
13406;SDS011;6774;48.208;10.766;2022-11-23T04:57:14;1.57;;;0.57;;
13406;SDS011;6774;48.208;10.766;2022-11-23T04:59:43;2.27;;;0.43;;
13406;SDS011;6774;48.208;10.766;2022-11-23T05:02:11;1.70;;;0.70;;
13406;SDS011;6774;48.208;10.766;2022-11-23T05:05:09;0.93;;;0.73;;
13406;SDS011;6774;48.208;10.766;2022-11-23T05:07:38;2.00;;;0.97;;
13406;SDS011;6774;48.208;10.766;2022-11-23T05:10:08;1.57;;;1.00;;
13406;SDS011;6774;48.208;10.766;2022-11-23T05:12:36;0.43;;;0.43;;
13406;SDS011;6774;48.208;10.766;2022-11-23T05:15:06;1.50;;;1.40;;
13406;SDS011;6774;48.208;10.766;2022-11-23T05:17:36;2.47;;;1.40;;
13406;SDS011;6774;48.208;10.766;2022-11-23T05:20:09;2.93;;;0.90;;
13406;SDS011;6774;48.208;10.766;2022-11-23T05:22:44;0.83;;;0.40;;
13406;SDS011;6774;48.208;10.766;2022-11-23T05:25:15;0.77;;;0.70;;
13406;SDS011;6774;48.208;10.766;2022-11-23T05:27:44;0.50;;;0.50;;
13406;SDS011;6774;48.208;10.766;2022-11-23T05:30:13;2.03;;;0.67;;
13406;SDS011;6774;48.208;10.766;2022-11-23T05:32:41;0.73;;;0.53;;
13406;SDS011;6774;48.208;10.766;2022-11-23T05:35:09;1.20;;;0.50;;
13406;SDS011;6774;48.208;10.766;2022-11-23T05:37:38;1.70;;;0.50;;
13406;SDS011;6774;48.208;10.766;2022-11-23T05:40:11;0.73;;;0.63;;
13406;SDS011;6774;48.208;10.766;2022-11-23T05:42:41;0.73;;;0.73;;
13406;SDS011;6774;48.208;10.766;2022-11-23T05:45:17;0.60;;;0.53;;
13406;SDS011;6774;48.208;10.766;2022-11-23T05:47:49;0.50;;;0.50;;
13406;SDS011;6774;48.208;10.766;2022-11-23T05:50:25;0.40;;;0.40;;
13406;SDS011;6774;48.208;10.766;2022-11-23T05:53:13;0.60;;;0.50;;
13406;SDS011;6774;48.208;10.766;2022-11-23T05:55:45;1.90;;;0.70;;
13406;SDS011;6774;48.208;10.766;2022-11-23T05:58:13;0.70;;;0.57;;
13406;SDS011;6774;48.208;10.766;2022-11-23T06:00:41;27.23;;;17.43;;
13406;SDS011;6774;48.208;10.766;2022-11-23T06:03:09;46.20;;;35.50;;
13406;SDS011;6774;48.208;10.766;2022-11-23T06:05:38;15.23;;;12.50;;
13406;SDS011;6774;48.208;10.766;2022-11-23T06:08:07;5.90;;;5.30;;
13406;SDS011;6774;48.208;10.766;2022-11-23T06:10:37;5.97;;;4.80;;
13406;SDS011;6774;48.208;10.766;2022-11-23T06:13:06;2.47;;;1.33;;
13406;SDS011;6774;48.208;10.766;2022-11-23T06:15:34;3.70;;;2.23;;
13406;SDS011;6774;48.208;10.766;2022-11-23T06:18:02;4.27;;;3.97;;
13406;SDS011;6774;48.208;10.766;2022-11-23T06:20:45;4.73;;;4.43;;
13406;SDS011;6774;48.208;10.766;2022-11-23T06:23:14;3.47;;;3.27;;
13406;SDS011;6774;48.208;10.766;2022-11-23T06:25:42;3.07;;;2.53;;
13406;SDS011;6774;48.208;10.766;2022-11-23T06:28:23;5.27;;;1.80;;
13406;SDS011;6774;48.208;10.766;2022-11-23T06:30:54;1.83;;;1.73;;
13406;SDS011;6774;48.208;10.766;2022-11-23T06:33:23;1.30;;;1.20;;
13406;SDS011;6774;48.208;10.766;2022-11-23T06:35:52;3.57;;;2.53;;
13406;SDS011;6774;48.208;10.766;2022-11-23T06:38:24;4.17;;;3.53;;
13406;SDS011;6774;48.208;10.766;2022-11-23T06:41:12;2.87;;;2.67;;
13406;SDS011;6774;48.208;10.766;2022-11-23T06:43:42;3.07;;;1.97;;
13406;SDS011;6774;48.208;10.766;2022-11-23T06:46:11;2.53;;;1.83;;
13406;SDS011;6774;48.208;10.766;2022-11-23T06:48:41;2.63;;;2.43;;
13406;SDS011;6774;48.208;10.766;2022-11-23T06:51:10;4.10;;;2.50;;
13406;SDS011;6774;48.208;10.766;2022-11-23T06:53:38;2.53;;;2.33;;
13406;SDS011;6774;48.208;10.766;2022-11-23T06:56:08;3.47;;;2.53;;
13406;SDS011;6774;48.208;10.766;2022-11-23T06:58:36;3.60;;;3.30;;
13406;SDS011;6774;48.208;10.766;2022-11-23T07:01:10;2.90;;;2.73;;
13406;SDS011;6774;48.208;10.766;2022-11-23T07:03:45;5.17;;;4.77;;
13406;SDS011;6774;48.208;10.766;2022-11-23T07:06:20;4.97;;;4.57;;
13406;SDS011;6774;48.208;10.766;2022-11-23T07:08:52;1.93;;;1.80;;
13406;SDS011;6774;48.208;10.766;2022-11-23T07:11:56;2.73;;;2.53;;
13406;SDS011;6774;48.208;10.766;2022-11-23T07:14:25;9.63;;;2.57;;
13406;SDS011;6774;48.208;10.766;2022-11-23T07:16:55;3.97;;;3.43;;
13406;SDS011;6774;48.208;10.766;2022-11-23T07:19:23;4.37;;;4.00;;
13406;SDS011;6774;48.208;10.766;2022-11-23T07:21:57;10.00;;;9.10;;
13406;SDS011;6774;48.208;10.766;2022-11-23T07:24:24;9.07;;;8.17;;
13406;SDS011;6774;48.208;10.766;2022-11-23T07:26:52;3.90;;;3.60;;
13406;SDS011;6774;48.208;10.766;2022-11-23T07:29:21;3.90;;;3.43;;
13406;SDS011;6774;48.208;10.766;2022-11-23T07:31:50;5.87;;;3.87;;
13406;SDS011;6774;48.208;10.766;2022-11-23T07:34:23;3.77;;;2.53;;
13406;SDS011;6774;48.208;10.766;2022-11-23T07:36:51;6.97;;;4.67;;
13406;SDS011;6774;48.208;10.766;2022-11-23T07:39:26;3.07;;;2.73;;
13406;SDS011;6774;48.208;10.766;2022-11-23T07:42:13;2.43;;;2.23;;
13406;SDS011;6774;48.208;10.766;2022-11-23T07:45:01;3.53;;;1.80;;
13406;SDS011;6774;48.208;10.766;2022-11-23T07:47:30;2.67;;;1.40;;
13406;SDS011;6774;48.208;10.766;2022-11-23T07:49:59;4.03;;;3.23;;
13406;SDS011;6774;48.208;10.766;2022-11-23T07:52:27;3.43;;;3.13;;
13406;SDS011;6774;48.208;10.766;2022-11-23T07:54:56;4.83;;;3.07;;
13406;SDS011;6774;48.208;10.766;2022-11-23T07:57:25;1.40;;;1.30;;
13406;SDS011;6774;48.208;10.766;2022-11-23T07:59:54;1.70;;;1.10;;
13406;SDS011;6774;48.208;10.766;2022-11-23T08:02:22;0.87;;;0.87;;
13406;SDS011;6774;48.208;10.766;2022-11-23T08:04:49;1.30;;;1.23;;
13406;SDS011;6774;48.208;10.766;2022-11-23T08:07:19;3.00;;;1.00;;
13406;SDS011;6774;48.208;10.766;2022-11-23T08:09:47;1.00;;;0.67;;
13406;SDS011;6774;48.208;10.766;2022-11-23T08:12:15;1.13;;;1.03;;
13406;SDS011;6774;48.208;10.766;2022-11-23T08:14:43;1.20;;;0.70;;
13406;SDS011;6774;48.208;10.766;2022-11-23T08:17:11;0.80;;;0.80;;
13406;SDS011;6774;48.208;10.766;2022-11-23T08:19:39;0.80;;;0.80;;
13406;SDS011;6774;48.208;10.766;2022-11-23T08:22:07;0.60;;;0.20;;
13406;SDS011;6774;48.208;10.766;2022-11-23T08:24:42;1.47;;;0.70;;
13406;SDS011;6774;48.208;10.766;2022-11-23T08:27:10;1.70;;;1.60;;
13406;SDS011;6774;48.208;10.766;2022-11-23T08:29:38;3.63;;;2.93;;
13406;SDS011;6774;48.208;10.766;2022-11-23T08:32:06;6.03;;;2.00;;
13406;SDS011;6774;48.208;10.766;2022-11-23T08:34:34;3.87;;;1.60;;
13406;SDS011;6774;48.208;10.766;2022-11-23T08:37:02;1.90;;;1.57;;
13406;SDS011;6774;48.208;10.766;2022-11-23T08:39:30;1.83;;;1.20;;
13406;SDS011;6774;48.208;10.766;2022-11-23T08:41:59;0.90;;;0.60;;
13406;SDS011;6774;48.208;10.766;2022-11-23T08:44:27;4.20;;;1.13;;
13406;SDS011;6774;48.208;10.766;2022-11-23T08:46:56;0.83;;;0.60;;
13406;SDS011;6774;48.208;10.766;2022-11-23T08:49:24;2.97;;;1.63;;
13406;SDS011;6774;48.208;10.766;2022-11-23T08:51:52;9.60;;;8.43;;
13406;SDS011;6774;48.208;10.766;2022-11-23T08:54:20;7.10;;;3.73;;
13406;SDS011;6774;48.208;10.766;2022-11-23T08:56:49;1.80;;;1.70;;
13406;SDS011;6774;48.208;10.766;2022-11-23T08:59:19;0.97;;;0.90;;
13406;SDS011;6774;48.208;10.766;2022-11-23T09:01:46;1.17;;;1.00;;
13406;SDS011;6774;48.208;10.766;2022-11-23T09:04:14;2.60;;;1.07;;
13406;SDS011;6774;48.208;10.766;2022-11-23T09:06:46;1.47;;;1.37;;
13406;SDS011;6774;48.208;10.766;2022-11-23T09:09:14;1.67;;;1.40;;
13406;SDS011;6774;48.208;10.766;2022-11-23T09:11:41;1.97;;;1.87;;
13406;SDS011;6774;48.208;10.766;2022-11-23T09:14:09;4.83;;;1.83;;
13406;SDS011;6774;48.208;10.766;2022-11-23T09:16:38;1.30;;;1.00;;
13406;SDS011;6774;48.208;10.766;2022-11-23T09:19:06;2.33;;;1.97;;
13406;SDS011;6774;48.208;10.766;2022-11-23T09:21:34;2.80;;;1.27;;
13406;SDS011;6774;48.208;10.766;2022-11-23T09:24:04;1.97;;;1.87;;
13406;SDS011;6774;48.208;10.766;2022-11-23T09:26:33;0.80;;;0.50;;
13406;SDS011;6774;48.208;10.766;2022-11-23T09:29:02;3.80;;;1.67;;
13406;SDS011;6774;48.208;10.766;2022-11-23T09:31:31;3.17;;;1.10;;
13406;SDS011;6774;48.208;10.766;2022-11-23T09:34:00;0.90;;;0.90;;
13406;SDS011;6774;48.208;10.766;2022-11-23T09:36:28;3.80;;;3.33;;
13406;SDS011;6774;48.208;10.766;2022-11-23T09:38:56;1.50;;;1.43;;
13406;SDS011;6774;48.208;10.766;2022-11-23T09:41:36;3.37;;;0.90;;
13406;SDS011;6774;48.208;10.766;2022-11-23T09:44:26;1.20;;;0.73;;
13406;SDS011;6774;48.208;10.766;2022-11-23T09:47:05;1.50;;;1.20;;
13406;SDS011;6774;48.208;10.766;2022-11-23T09:49:48;2.20;;;1.83;;
13406;SDS011;6774;48.208;10.766;2022-11-23T09:52:24;1.37;;;1.33;;
13406;SDS011;6774;48.208;10.766;2022-11-23T09:54:53;1.00;;;0.90;;
13406;SDS011;6774;48.208;10.766;2022-11-23T09:57:24;1.07;;;0.97;;
13406;SDS011;6774;48.208;10.766;2022-11-23T09:59:57;1.80;;;1.63;;
13406;SDS011;6774;48.208;10.766;2022-11-23T10:02:29;0.97;;;0.63;;
13406;SDS011;6774;48.208;10.766;2022-11-23T10:05:04;1.17;;;0.40;;
13406;SDS011;6774;48.208;10.766;2022-11-23T10:07:38;1.40;;;1.20;;
13406;SDS011;6774;48.208;10.766;2022-11-23T10:10:20;4.10;;;0.57;;
13406;SDS011;6774;48.208;10.766;2022-11-23T10:12:58;1.53;;;1.13;;
13406;SDS011;6774;48.208;10.766;2022-11-23T10:15:36;4.43;;;0.60;;
13406;SDS011;6774;48.208;10.766;2022-11-23T10:18:09;1.03;;;0.77;;
13406;SDS011;6774;48.208;10.766;2022-11-23T10:20:52;2.80;;;1.47;;
13406;SDS011;6774;48.208;10.766;2022-11-23T10:23:29;0.47;;;0.37;;
13406;SDS011;6774;48.208;10.766;2022-11-23T10:26:16;2.13;;;0.43;;
13406;SDS011;6774;48.208;10.766;2022-11-23T10:28:45;3.13;;;1.90;;
13406;SDS011;6774;48.208;10.766;2022-11-23T10:31:14;0.80;;;0.50;;
13406;SDS011;6774;48.208;10.766;2022-11-23T10:33:47;1.33;;;0.90;;
13406;SDS011;6774;48.208;10.766;2022-11-23T10:36:22;0.50;;;0.50;;
13406;SDS011;6774;48.208;10.766;2022-11-23T10:38:51;3.17;;;0.90;;
13406;SDS011;6774;48.208;10.766;2022-11-23T10:41:24;0.40;;;0.40;;
13406;SDS011;6774;48.208;10.766;2022-11-23T10:43:54;1.07;;;0.67;;
13406;SDS011;6774;48.208;10.766;2022-11-23T10:46:36;0.47;;;0.40;;
13406;SDS011;6774;48.208;10.766;2022-11-23T10:49:11;0.87;;;0.30;;
13406;SDS011;6774;48.208;10.766;2022-11-23T10:51:52;1.90;;;0.60;;
13406;SDS011;6774;48.208;10.766;2022-11-23T10:54:23;1.30;;;0.47;;
13406;SDS011;6774;48.208;10.766;2022-11-23T10:56:55;0.53;;;0.40;;
13406;SDS011;6774;48.208;10.766;2022-11-23T10:59:31;1.33;;;0.50;;
13406;SDS011;6774;48.208;10.766;2022-11-23T11:02:10;1.27;;;0.90;;
13406;SDS011;6774;48.208;10.766;2022-11-23T11:04:41;3.93;;;0.83;;
13406;SDS011;6774;48.208;10.766;2022-11-23T11:07:19;9.37;;;2.50;;
13406;SDS011;6774;48.208;10.766;2022-11-23T11:09:51;0.40;;;0.20;;
13406;SDS011;6774;48.208;10.766;2022-11-23T11:12:20;1.97;;;0.83;;
13406;SDS011;6774;48.208;10.766;2022-11-23T11:14:56;0.80;;;0.80;;
13406;SDS011;6774;48.208;10.766;2022-11-23T11:17:36;1.10;;;0.63;;
13406;SDS011;6774;48.208;10.766;2022-11-23T11:22:58;1.93;;;0.67;;
13406;SDS011;6774;48.208;10.766;2022-11-23T11:25:29;0.80;;;0.60;;
13406;SDS011;6774;48.208;10.766;2022-11-23T11:27:59;0.53;;;0.30;;
13406;SDS011;6774;48.208;10.766;2022-11-23T11:30:31;1.17;;;0.67;;
13406;SDS011;6774;48.208;10.766;2022-11-23T11:33:10;0.53;;;0.53;;
13406;SDS011;6774;48.208;10.766;2022-11-23T11:35:45;0.97;;;0.20;;
13406;SDS011;6774;48.208;10.766;2022-11-23T11:38:19;2.70;;;0.30;;
13406;SDS011;6774;48.208;10.766;2022-11-23T11:40:53;0.50;;;0.20;;
13406;SDS011;6774;48.208;10.766;2022-11-23T11:43:24;2.03;;;0.30;;
13406;SDS011;6774;48.208;10.766;2022-11-23T11:46:08;0.40;;;0.27;;
13406;SDS011;6774;48.208;10.766;2022-11-23T11:48:56;3.60;;;0.70;;
13406;SDS011;6774;48.208;10.766;2022-11-23T11:51:31;0.50;;;0.30;;
13406;SDS011;6774;48.208;10.766;2022-11-23T11:54:08;0.53;;;0.30;;
13406;SDS011;6774;48.208;10.766;2022-11-23T11:56:42;0.83;;;0.77;;
13406;SDS011;6774;48.208;10.766;2022-11-23T11:59:13;0.30;;;0.30;;
13406;SDS011;6774;48.208;10.766;2022-11-23T12:01:47;12.10;;;11.30;;
13406;SDS011;6774;48.208;10.766;2022-11-23T12:04:22;6.80;;;5.03;;
13406;SDS011;6774;48.208;10.766;2022-11-23T12:06:58;1.40;;;1.30;;
13406;SDS011;6774;48.208;10.766;2022-11-23T12:09:33;0.30;;;0.20;;
13406;SDS011;6774;48.208;10.766;2022-11-23T12:12:07;0.90;;;0.67;;
13406;SDS011;6774;48.208;10.766;2022-11-23T12:14:41;0.93;;;0.80;;
13406;SDS011;6774;48.208;10.766;2022-11-23T12:17:27;0.33;;;0.33;;
13406;SDS011;6774;48.208;10.766;2022-11-23T12:20:12;0.40;;;0.13;;
13406;SDS011;6774;48.208;10.766;2022-11-23T12:23:06;1.17;;;0.53;;
13406;SDS011;6774;48.208;10.766;2022-11-23T12:25:44;1.37;;;0.73;;
13406;SDS011;6774;48.208;10.766;2022-11-23T12:28:28;1.87;;;0.43;;
13406;SDS011;6774;48.208;10.766;2022-11-23T12:31:07;0.50;;;0.27;;
13406;SDS011;6774;48.208;10.766;2022-11-23T12:33:45;0.60;;;0.40;;
13406;SDS011;6774;48.208;10.766;2022-11-23T12:36:36;2.10;;;0.30;;
13406;SDS011;6774;48.208;10.766;2022-11-23T12:39:22;0.77;;;0.53;;
13406;SDS011;6774;48.208;10.766;2022-11-23T12:42:05;0.97;;;0.43;;
13406;SDS011;6774;48.208;10.766;2022-11-23T12:44:46;5.80;;;0.97;;
13406;SDS011;6774;48.208;10.766;2022-11-23T12:47:24;1.47;;;0.60;;
13406;SDS011;6774;48.208;10.766;2022-11-23T12:50:02;1.60;;;0.30;;
13406;SDS011;6774;48.208;10.766;2022-11-23T12:52:51;1.37;;;0.40;;
13406;SDS011;6774;48.208;10.766;2022-11-23T12:55:28;0.70;;;0.50;;
13406;SDS011;6774;48.208;10.766;2022-11-23T12:58:09;2.30;;;1.97;;
13406;SDS011;6774;48.208;10.766;2022-11-23T13:00:42;0.57;;;0.47;;
13406;SDS011;6774;48.208;10.766;2022-11-23T13:03:20;3.60;;;1.27;;
13406;SDS011;6774;48.208;10.766;2022-11-23T13:06:14;0.53;;;0.43;;
13406;SDS011;6774;48.208;10.766;2022-11-23T13:09:41;1.13;;;0.83;;
13406;SDS011;6774;48.208;10.766;2022-11-23T13:12:33;0.70;;;0.20;;
13406;SDS011;6774;48.208;10.766;2022-11-23T13:15:20;0.70;;;0.50;;
13406;SDS011;6774;48.208;10.766;2022-11-23T13:18:03;0.30;;;0.10;;
13406;SDS011;6774;48.208;10.766;2022-11-23T13:20:54;0.73;;;0.73;;
13406;SDS011;6774;48.208;10.766;2022-11-23T13:23:33;3.13;;;0.60;;
13406;SDS011;6774;48.208;10.766;2022-11-23T13:26:13;0.27;;;0.27;;
13406;SDS011;6774;48.208;10.766;2022-11-23T13:28:43;2.10;;;0.23;;
13406;SDS011;6774;48.208;10.766;2022-11-23T13:31:20;2.33;;;0.30;;
13406;SDS011;6774;48.208;10.766;2022-11-23T13:33:51;1.77;;;0.90;;
13406;SDS011;6774;48.208;10.766;2022-11-23T13:42:29;0.93;;;0.30;;
13406;SDS011;6774;48.208;10.766;2022-11-23T13:48:12;9.97;;;0.73;;
13406;SDS011;6774;48.208;10.766;2022-11-23T13:51:04;0.40;;;0.30;;
13406;SDS011;6774;48.208;10.766;2022-11-23T13:53:32;4.43;;;1.80;;
13406;SDS011;6774;48.208;10.766;2022-11-23T13:56:15;0.70;;;0.70;;
13406;SDS011;6774;48.208;10.766;2022-11-23T13:58:49;2.10;;;1.93;;
13406;SDS011;6774;48.208;10.766;2022-11-23T14:04:26;2.27;;;0.53;;
13406;SDS011;6774;48.208;10.766;2022-11-23T14:06:57;0.10;;;0.10;;
13406;SDS011;6774;48.208;10.766;2022-11-23T14:09:31;1.40;;;0.50;;
13406;SDS011;6774;48.208;10.766;2022-11-23T14:12:05;1.60;;;0.50;;
13406;SDS011;6774;48.208;10.766;2022-11-23T14:14:46;0.57;;;0.10;;
13406;SDS011;6774;48.208;10.766;2022-11-23T14:20:36;0.40;;;0.20;;
13406;SDS011;6774;48.208;10.766;2022-11-23T14:23:16;0.47;;;0.20;;
13406;SDS011;6774;48.208;10.766;2022-11-23T14:25:57;1.10;;;0.43;;
13406;SDS011;6774;48.208;10.766;2022-11-23T14:28:42;2.53;;;0.60;;
13406;SDS011;6774;48.208;10.766;2022-11-23T14:31:21;0.10;;;0.10;;
13406;SDS011;6774;48.208;10.766;2022-11-23T14:33:55;0.50;;;0.20;;
13406;SDS011;6774;48.208;10.766;2022-11-23T14:36:34;0.87;;;0.70;;
13406;SDS011;6774;48.208;10.766;2022-11-23T14:39:24;0.93;;;0.93;;
13406;SDS011;6774;48.208;10.766;2022-11-23T14:42:16;1.40;;;0.30;;
13406;SDS011;6774;48.208;10.766;2022-11-23T14:44:46;1.43;;;0.20;;
13406;SDS011;6774;48.208;10.766;2022-11-23T14:47:23;1.50;;;1.40;;
13406;SDS011;6774;48.208;10.766;2022-11-23T14:49:53;2.30;;;1.57;;
13406;SDS011;6774;48.208;10.766;2022-11-23T14:52:23;6.57;;;2.13;;
13406;SDS011;6774;48.208;10.766;2022-11-23T14:54:54;2.27;;;2.00;;
13406;SDS011;6774;48.208;10.766;2022-11-23T14:57:25;1.80;;;1.70;;
13406;SDS011;6774;48.208;10.766;2022-11-23T14:59:56;4.30;;;3.77;;
13406;SDS011;6774;48.208;10.766;2022-11-23T15:02:32;1.83;;;1.73;;
13406;SDS011;6774;48.208;10.766;2022-11-23T15:05:04;3.03;;;0.50;;
13406;SDS011;6774;48.208;10.766;2022-11-23T15:07:41;0.87;;;0.83;;
13406;SDS011;6774;48.208;10.766;2022-11-23T15:10:19;1.77;;;0.87;;
13406;SDS011;6774;48.208;10.766;2022-11-23T15:12:55;0.63;;;0.47;;
13406;SDS011;6774;48.208;10.766;2022-11-23T15:15:24;3.87;;;1.00;;
13406;SDS011;6774;48.208;10.766;2022-11-23T15:17:54;4.40;;;1.00;;
13406;SDS011;6774;48.208;10.766;2022-11-23T15:20:24;2.57;;;2.37;;
13406;SDS011;6774;48.208;10.766;2022-11-23T15:22:59;1.20;;;1.10;;
13406;SDS011;6774;48.208;10.766;2022-11-23T15:25:27;11.07;;;6.43;;
13406;SDS011;6774;48.208;10.766;2022-11-23T15:27:55;7.43;;;3.67;;
13406;SDS011;6774;48.208;10.766;2022-11-23T15:30:25;2.00;;;1.90;;
13406;SDS011;6774;48.208;10.766;2022-11-23T15:32:55;2.53;;;2.10;;
13406;SDS011;6774;48.208;10.766;2022-11-23T15:35:27;8.00;;;4.37;;
13406;SDS011;6774;48.208;10.766;2022-11-23T15:37:57;8.07;;;3.23;;
13406;SDS011;6774;48.208;10.766;2022-11-23T15:40:29;4.40;;;2.57;;